sensor_id;sensor_type;location;lat;lon;timestamp;pressure;altitude;pressure_sealevel;temperature;humidity
73936;BME280;62287;50.858;0.252;2023-02-28T00:00:08;102948.12;;;12.29;39.08
73936;BME280;62287;50.858;0.252;2023-02-28T00:00:40;102949.20;;;12.17;39.19
73936;BME280;62287;50.858;0.252;2023-02-28T00:01:12;102951.00;;;11.92;39.11
73936;BME280;62287;50.858;0.252;2023-02-28T00:01:48;102950.74;;;12.54;39.23
73936;BME280;62287;50.858;0.252;2023-02-28T00:02:19;102951.37;;;12.32;39.16
73936;BME280;62287;50.858;0.252;2023-02-28T00:02:50;102950.51;;;12.03;39.01
73936;BME280;62287;50.858;0.252;2023-02-28T00:03:21;102950.76;;;12.05;39.02
73936;BME280;62287;50.858;0.252;2023-02-28T00:03:51;102950.92;;;12.06;38.97
73936;BME280;62287;50.858;0.252;2023-02-28T00:04:22;102950.85;;;11.99;39.17
73936;BME280;62287;50.858;0.252;2023-02-28T00:04:54;102950.33;;;12.06;39.10
73936;BME280;62287;50.858;0.252;2023-02-28T00:05:26;102951.41;;;12.27;39.22
73936;BME280;62287;50.858;0.252;2023-02-28T00:05:58;102952.04;;;12.11;39.22
73936;BME280;62287;50.858;0.252;2023-02-28T00:06:29;102950.73;;;11.84;39.32
73936;BME280;62287;50.858;0.252;2023-02-28T00:07:00;102951.97;;;11.94;39.22
73936;BME280;62287;50.858;0.252;2023-02-28T00:07:31;102952.62;;;12.08;39.23
73936;BME280;62287;50.858;0.252;2023-02-28T00:08:03;102950.06;;;12.09;39.09
73936;BME280;62287;50.858;0.252;2023-02-28T00:08:34;102949.77;;;11.88;39.30
73936;BME280;62287;50.858;0.252;2023-02-28T00:09:05;102950.99;;;12.65;39.24
73936;BME280;62287;50.858;0.252;2023-02-28T00:09:36;102951.27;;;12.83;39.16
73936;BME280;62287;50.858;0.252;2023-02-28T00:10:10;102950.48;;;12.88;39.22
73936;BME280;62287;50.858;0.252;2023-02-28T00:10:41;102951.39;;;11.71;39.42
73936;BME280;62287;50.858;0.252;2023-02-28T00:11:14;102951.31;;;11.96;39.21
73936;BME280;62287;50.858;0.252;2023-02-28T00:11:45;102952.49;;;11.68;39.49
73936;BME280;62287;50.858;0.252;2023-02-28T00:12:16;102954.06;;;12.20;39.35
73936;BME280;62287;50.858;0.252;2023-02-28T00:12:47;102954.12;;;11.95;39.23
73936;BME280;62287;50.858;0.252;2023-02-28T00:13:18;102956.82;;;12.70;39.29
73936;BME280;62287;50.858;0.252;2023-02-28T00:13:49;102957.10;;;12.84;39.12
73936;BME280;62287;50.858;0.252;2023-02-28T00:14:20;102956.18;;;11.96;39.30
73936;BME280;62287;50.858;0.252;2023-02-28T00:14:51;102956.75;;;12.08;39.12
73936;BME280;62287;50.858;0.252;2023-02-28T00:15:23;102958.56;;;12.09;39.43
73936;BME280;62287;50.858;0.252;2023-02-28T00:16:00;102959.18;;;12.14;39.43
73936;BME280;62287;50.858;0.252;2023-02-28T00:16:31;102959.47;;;12.12;39.44
73936;BME280;62287;50.858;0.252;2023-02-28T00:17:03;102960.20;;;12.67;39.24
73936;BME280;62287;50.858;0.252;2023-02-28T00:17:34;102961.60;;;11.92;39.22
73936;BME280;62287;50.858;0.252;2023-02-28T00:18:05;102959.51;;;12.73;39.34
73936;BME280;62287;50.858;0.252;2023-02-28T00:18:36;102960.48;;;12.02;39.23
73936;BME280;62287;50.858;0.252;2023-02-28T00:19:08;102960.67;;;11.95;39.34
73936;BME280;62287;50.858;0.252;2023-02-28T00:19:39;102960.11;;;11.98;39.26
73936;BME280;62287;50.858;0.252;2023-02-28T00:20:11;102959.95;;;11.78;39.33
73936;BME280;62287;50.858;0.252;2023-02-28T00:20:43;102958.25;;;12.47;39.41
73936;BME280;62287;50.858;0.252;2023-02-28T00:21:15;102957.90;;;12.03;39.48
73936;BME280;62287;50.858;0.252;2023-02-28T00:21:46;102956.40;;;12.08;39.27
73936;BME280;62287;50.858;0.252;2023-02-28T00:22:19;102957.96;;;12.01;39.18
73936;BME280;62287;50.858;0.252;2023-02-28T00:22:52;102960.14;;;11.95;39.33
73936;BME280;62287;50.858;0.252;2023-02-28T00:23:23;102961.81;;;11.92;39.33
73936;BME280;62287;50.858;0.252;2023-02-28T00:23:54;102963.00;;;12.34;39.29
73936;BME280;62287;50.858;0.252;2023-02-28T00:24:25;102962.13;;;12.75;39.28
73936;BME280;62287;50.858;0.252;2023-02-28T00:24:56;102962.27;;;12.79;39.22
73936;BME280;62287;50.858;0.252;2023-02-28T00:25:27;102960.71;;;12.28;39.31
73936;BME280;62287;50.858;0.252;2023-02-28T00:25:58;102961.16;;;12.34;39.38
73936;BME280;62287;50.858;0.252;2023-02-28T00:26:29;102959.98;;;12.63;39.28
73936;BME280;62287;50.858;0.252;2023-02-28T00:27:00;102960.12;;;12.01;39.35
73936;BME280;62287;50.858;0.252;2023-02-28T00:27:31;102959.68;;;12.79;39.27
73936;BME280;62287;50.858;0.252;2023-02-28T00:28:02;102962.16;;;12.24;39.31
73936;BME280;62287;50.858;0.252;2023-02-28T00:28:33;102961.33;;;11.86;39.34
73936;BME280;62287;50.858;0.252;2023-02-28T00:29:04;102960.73;;;11.98;39.31
73936;BME280;62287;50.858;0.252;2023-02-28T00:29:36;102958.81;;;12.47;39.60
73936;BME280;62287;50.858;0.252;2023-02-28T00:30:11;102957.06;;;11.73;39.61
73936;BME280;62287;50.858;0.252;2023-02-28T00:30:43;102957.32;;;11.73;39.51
73936;BME280;62287;50.858;0.252;2023-02-28T00:31:14;102957.28;;;12.08;39.50
73936;BME280;62287;50.858;0.252;2023-02-28T00:31:45;102958.23;;;11.96;39.46
73936;BME280;62287;50.858;0.252;2023-02-28T00:32:16;102957.36;;;11.78;39.51
73936;BME280;62287;50.858;0.252;2023-02-28T00:32:47;102960.12;;;12.32;39.29
73936;BME280;62287;50.858;0.252;2023-02-28T00:33:18;102958.69;;;11.72;39.41
73936;BME280;62287;50.858;0.252;2023-02-28T00:33:49;102959.54;;;11.82;39.44
73936;BME280;62287;50.858;0.252;2023-02-28T00:34:20;102961.12;;;11.85;39.33
73936;BME280;62287;50.858;0.252;2023-02-28T00:34:51;102959.60;;;11.93;39.29
73936;BME280;62287;50.858;0.252;2023-02-28T00:35:22;102960.39;;;11.66;39.50
73936;BME280;62287;50.858;0.252;2023-02-28T00:36:03;102959.43;;;12.38;39.53
73936;BME280;62287;50.858;0.252;2023-02-28T00:36:34;102960.84;;;11.81;39.49
73936;BME280;62287;50.858;0.252;2023-02-28T00:37:06;102961.71;;;12.38;39.59
73936;BME280;62287;50.858;0.252;2023-02-28T00:37:37;102959.16;;;11.72;39.50
73936;BME280;62287;50.858;0.252;2023-02-28T00:38:09;102959.96;;;11.72;39.44
73936;BME280;62287;50.858;0.252;2023-02-28T00:38:40;102961.68;;;11.92;39.44
73936;BME280;62287;50.858;0.252;2023-02-28T00:39:11;102962.02;;;11.76;39.42
73936;BME280;62287;50.858;0.252;2023-02-28T00:39:47;102963.87;;;11.78;39.51
73936;BME280;62287;50.858;0.252;2023-02-28T00:40:18;102962.71;;;11.86;39.42
73936;BME280;62287;50.858;0.252;2023-02-28T00:40:49;102962.47;;;12.33;39.37
73936;BME280;62287;50.858;0.252;2023-02-28T00:41:20;102964.43;;;12.17;39.46
73936;BME280;62287;50.858;0.252;2023-02-28T00:41:51;102962.29;;;12.53;39.33
73936;BME280;62287;50.858;0.252;2023-02-28T00:42:22;102962.26;;;12.21;39.41
73936;BME280;62287;50.858;0.252;2023-02-28T00:42:54;102962.70;;;12.40;39.54
73936;BME280;62287;50.858;0.252;2023-02-28T00:43:25;102964.19;;;11.68;39.51
73936;BME280;62287;50.858;0.252;2023-02-28T00:43:56;102966.69;;;12.19;39.52
73936;BME280;62287;50.858;0.252;2023-02-28T00:44:27;102966.37;;;12.53;39.40
73936;BME280;62287;50.858;0.252;2023-02-28T00:44:58;102966.53;;;12.69;39.39
73936;BME280;62287;50.858;0.252;2023-02-28T00:45:29;102968.70;;;11.99;39.26
73936;BME280;62287;50.858;0.252;2023-02-28T00:46:04;102969.32;;;12.05;39.47
73936;BME280;62287;50.858;0.252;2023-02-28T00:46:35;102967.43;;;12.29;39.54
73936;BME280;62287;50.858;0.252;2023-02-28T00:47:06;102967.58;;;12.11;39.50
73936;BME280;62287;50.858;0.252;2023-02-28T00:47:37;102968.00;;;11.89;39.60
73936;BME280;62287;50.858;0.252;2023-02-28T00:48:08;102968.19;;;11.73;39.41
73936;BME280;62287;50.858;0.252;2023-02-28T00:48:39;102967.76;;;12.24;39.62
73936;BME280;62287;50.858;0.252;2023-02-28T00:49:10;102965.11;;;12.03;39.64
73936;BME280;62287;50.858;0.252;2023-02-28T00:49:41;102965.25;;;11.70;39.54
73936;BME280;62287;50.858;0.252;2023-02-28T00:50:12;102961.33;;;12.65;39.33
73936;BME280;62287;50.858;0.252;2023-02-28T00:50:43;102962.62;;;12.41;39.44
73936;BME280;62287;50.858;0.252;2023-02-28T00:51:14;102960.32;;;12.35;39.57
73936;BME280;62287;50.858;0.252;2023-02-28T00:51:45;102961.45;;;11.60;39.52
73936;BME280;62287;50.858;0.252;2023-02-28T00:52:16;102962.18;;;11.99;39.65
73936;BME280;62287;50.858;0.252;2023-02-28T00:52:48;102963.20;;;11.54;39.59
73936;BME280;62287;50.858;0.252;2023-02-28T00:53:19;102962.28;;;12.01;39.29
73936;BME280;62287;50.858;0.252;2023-02-28T00:53:50;102963.50;;;11.74;39.39
73936;BME280;62287;50.858;0.252;2023-02-28T00:54:22;102964.47;;;11.96;39.46
73936;BME280;62287;50.858;0.252;2023-02-28T00:54:53;102962.70;;;12.21;39.27
73936;BME280;62287;50.858;0.252;2023-02-28T00:55:24;102963.54;;;11.65;39.40
73936;BME280;62287;50.858;0.252;2023-02-28T00:55:55;102965.42;;;11.67;39.41
73936;BME280;62287;50.858;0.252;2023-02-28T00:56:26;102965.81;;;12.32;39.24
73936;BME280;62287;50.858;0.252;2023-02-28T00:56:57;102965.08;;;11.91;39.29
73936;BME280;62287;50.858;0.252;2023-02-28T00:57:28;102964.90;;;11.78;39.28
73936;BME280;62287;50.858;0.252;2023-02-28T00:57:59;102964.31;;;11.92;39.32
73936;BME280;62287;50.858;0.252;2023-02-28T00:58:30;102965.39;;;12.23;39.28
73936;BME280;62287;50.858;0.252;2023-02-28T00:59:02;102962.13;;;12.26;39.43
73936;BME280;62287;50.858;0.252;2023-02-28T00:59:33;102960.67;;;11.64;39.42
73936;BME280;62287;50.858;0.252;2023-02-28T01:00:06;102960.33;;;12.19;39.36
73936;BME280;62287;50.858;0.252;2023-02-28T01:00:37;102961.26;;;11.66;39.42
73936;BME280;62287;50.858;0.252;2023-02-28T01:01:09;102961.40;;;12.00;39.33
73936;BME280;62287;50.858;0.252;2023-02-28T01:01:41;102960.84;;;12.39;39.49
73936;BME280;62287;50.858;0.252;2023-02-28T01:02:13;102962.45;;;11.94;39.55
73936;BME280;62287;50.858;0.252;2023-02-28T01:02:44;102964.02;;;11.68;39.38
73936;BME280;62287;50.858;0.252;2023-02-28T01:03:15;102965.84;;;11.66;39.42
73936;BME280;62287;50.858;0.252;2023-02-28T01:03:46;102966.03;;;11.79;39.42
73936;BME280;62287;50.858;0.252;2023-02-28T01:04:17;102964.31;;;11.90;39.47
73936;BME280;62287;50.858;0.252;2023-02-28T01:04:48;102962.44;;;11.80;39.36
73936;BME280;62287;50.858;0.252;2023-02-28T01:05:19;102962.17;;;12.07;39.13
73936;BME280;62287;50.858;0.252;2023-02-28T01:05:50;102961.42;;;12.57;39.25
73936;BME280;62287;50.858;0.252;2023-02-28T01:06:22;102960.88;;;12.18;39.29
73936;BME280;62287;50.858;0.252;2023-02-28T01:06:53;102961.34;;;12.07;39.37
73936;BME280;62287;50.858;0.252;2023-02-28T01:07:24;102960.06;;;12.61;39.28
73936;BME280;62287;50.858;0.252;2023-02-28T01:07:55;102960.82;;;11.99;39.51
73936;BME280;62287;50.858;0.252;2023-02-28T01:08:26;102959.35;;;12.18;39.50
73936;BME280;62287;50.858;0.252;2023-02-28T01:08:57;102959.84;;;12.11;39.48
73936;BME280;62287;50.858;0.252;2023-02-28T01:09:28;102957.95;;;12.18;39.32
73936;BME280;62287;50.858;0.252;2023-02-28T01:09:59;102958.89;;;12.11;39.18
73936;BME280;62287;50.858;0.252;2023-02-28T01:10:30;102957.09;;;11.81;39.30
73936;BME280;62287;50.858;0.252;2023-02-28T01:11:08;102958.24;;;11.97;39.45
73936;BME280;62287;50.858;0.252;2023-02-28T01:11:40;102959.66;;;11.54;39.71
73936;BME280;62287;50.858;0.252;2023-02-28T01:12:11;102959.68;;;12.28;39.49
73936;BME280;62287;50.858;0.252;2023-02-28T01:12:42;102957.63;;;11.77;39.37
73936;BME280;62287;50.858;0.252;2023-02-28T01:13:14;102958.75;;;11.87;39.16
73936;BME280;62287;50.858;0.252;2023-02-28T01:13:46;102961.15;;;11.74;39.16
73936;BME280;62287;50.858;0.252;2023-02-28T01:14:18;102962.51;;;11.57;39.20
73936;BME280;62287;50.858;0.252;2023-02-28T01:14:49;102963.27;;;12.27;38.86
73936;BME280;62287;50.858;0.252;2023-02-28T01:15:20;102965.15;;;12.13;38.82
73936;BME280;62287;50.858;0.252;2023-02-28T01:15:55;102965.17;;;11.88;38.78
73936;BME280;62287;50.858;0.252;2023-02-28T01:16:26;102964.25;;;11.96;38.70
73936;BME280;62287;50.858;0.252;2023-02-28T01:16:58;102968.22;;;12.47;38.51
73936;BME280;62287;50.858;0.252;2023-02-28T01:17:29;102969.77;;;12.39;38.57
73936;BME280;62287;50.858;0.252;2023-02-28T01:18:00;102969.54;;;12.23;38.35
73936;BME280;62287;50.858;0.252;2023-02-28T01:18:31;102966.57;;;12.01;38.50
73936;BME280;62287;50.858;0.252;2023-02-28T01:19:03;102968.51;;;12.28;38.54
73936;BME280;62287;50.858;0.252;2023-02-28T01:19:34;102965.79;;;11.97;38.55
73936;BME280;62287;50.858;0.252;2023-02-28T01:20:06;102967.50;;;11.92;38.67
73936;BME280;62287;50.858;0.252;2023-02-28T01:20:38;102968.13;;;11.60;38.91
73936;BME280;62287;50.858;0.252;2023-02-28T01:21:11;102965.59;;;11.72;38.65
73936;BME280;62287;50.858;0.252;2023-02-28T01:21:42;102966.80;;;11.53;38.87
73936;BME280;62287;50.858;0.252;2023-02-28T01:22:13;102966.10;;;12.27;38.83
73936;BME280;62287;50.858;0.252;2023-02-28T01:22:45;102966.75;;;11.86;38.69
73936;BME280;62287;50.858;0.252;2023-02-28T01:23:16;102966.53;;;11.72;38.80
73936;BME280;62287;50.858;0.252;2023-02-28T01:23:47;102963.15;;;11.87;38.80
73936;BME280;62287;50.858;0.252;2023-02-28T01:24:19;102963.37;;;11.99;38.62
73936;BME280;62287;50.858;0.252;2023-02-28T01:24:50;102962.21;;;12.14;38.45
73936;BME280;62287;50.858;0.252;2023-02-28T01:25:21;102960.59;;;12.26;38.33
73936;BME280;62287;50.858;0.252;2023-02-28T01:25:52;102961.46;;;11.97;38.48
73936;BME280;62287;50.858;0.252;2023-02-28T01:26:24;102962.45;;;11.90;38.62
73936;BME280;62287;50.858;0.252;2023-02-28T01:26:55;102962.12;;;11.86;38.72
73936;BME280;62287;50.858;0.252;2023-02-28T01:27:26;102963.47;;;12.06;38.49
73936;BME280;62287;50.858;0.252;2023-02-28T01:27:57;102963.04;;;12.24;38.31
73936;BME280;62287;50.858;0.252;2023-02-28T01:28:28;102961.80;;;12.00;38.49
73936;BME280;62287;50.858;0.252;2023-02-28T01:28:59;102960.65;;;12.00;38.50
73936;BME280;62287;50.858;0.252;2023-02-28T01:29:30;102959.32;;;11.75;38.71
73936;BME280;62287;50.858;0.252;2023-02-28T01:30:03;102961.31;;;12.02;38.48
73936;BME280;62287;50.858;0.252;2023-02-28T01:30:34;102961.17;;;12.08;38.48
73936;BME280;62287;50.858;0.252;2023-02-28T01:31:05;102961.61;;;12.54;38.37
73936;BME280;62287;50.858;0.252;2023-02-28T01:31:36;102958.83;;;12.10;38.44
73936;BME280;62287;50.858;0.252;2023-02-28T01:32:07;102958.38;;;12.08;38.34
73936;BME280;62287;50.858;0.252;2023-02-28T01:32:38;102957.39;;;12.11;38.42
73936;BME280;62287;50.858;0.252;2023-02-28T01:33:09;102954.63;;;11.84;38.59
73936;BME280;62287;50.858;0.252;2023-02-28T01:33:40;102954.75;;;11.83;38.65
73936;BME280;62287;50.858;0.252;2023-02-28T01:34:12;102954.79;;;11.73;38.73
73936;BME280;62287;50.858;0.252;2023-02-28T01:34:43;102954.90;;;11.78;38.76
73936;BME280;62287;50.858;0.252;2023-02-28T01:35:14;102954.81;;;12.01;38.52
73936;BME280;62287;50.858;0.252;2023-02-28T01:35:45;102954.94;;;12.14;38.68
73936;BME280;62287;50.858;0.252;2023-02-28T01:36:18;102950.44;;;11.69;38.69
73936;BME280;62287;50.858;0.252;2023-02-28T01:36:50;102949.52;;;11.78;38.52
73936;BME280;62287;50.858;0.252;2023-02-28T01:37:20;102945.57;;;11.78;38.43
73936;BME280;62287;50.858;0.252;2023-02-28T01:37:51;102943.68;;;11.85;38.46
73936;BME280;62287;50.858;0.252;2023-02-28T01:38:22;102942.66;;;11.83;38.53
73936;BME280;62287;50.858;0.252;2023-02-28T01:38:54;102944.18;;;11.73;38.59
73936;BME280;62287;50.858;0.252;2023-02-28T01:39:25;102945.39;;;11.81;38.53
73936;BME280;62287;50.858;0.252;2023-02-28T01:39:56;102947.12;;;11.70;38.68
73936;BME280;62287;50.858;0.252;2023-02-28T01:40:27;102947.14;;;12.06;38.80
73936;BME280;62287;50.858;0.252;2023-02-28T01:40:58;102947.61;;;11.62;38.82
73936;BME280;62287;50.858;0.252;2023-02-28T01:41:32;102950.13;;;11.69;38.76
73936;BME280;62287;50.858;0.252;2023-02-28T01:42:03;102949.20;;;11.76;38.68
73936;BME280;62287;50.858;0.252;2023-02-28T01:42:34;102947.65;;;11.85;38.61
73936;BME280;62287;50.858;0.252;2023-02-28T01:43:16;102949.06;;;11.69;38.77
73936;BME280;62287;50.858;0.252;2023-02-28T01:43:55;102950.10;;;11.72;38.70
73936;BME280;62287;50.858;0.252;2023-02-28T01:45:04;102949.57;;;11.77;38.62
73936;BME280;62287;50.858;0.252;2023-02-28T01:45:37;102948.53;;;11.28;38.67
73936;BME280;62287;50.858;0.252;2023-02-28T01:46:08;102949.19;;;12.25;38.52
73936;BME280;62287;50.858;0.252;2023-02-28T01:46:39;102950.98;;;12.08;38.30
73936;BME280;62287;50.858;0.252;2023-02-28T01:47:10;102949.02;;;12.18;38.15
73936;BME280;62287;50.858;0.252;2023-02-28T01:47:42;102948.71;;;11.95;38.33
73936;BME280;62287;50.858;0.252;2023-02-28T01:48:14;102949.31;;;11.94;38.38
73936;BME280;62287;50.858;0.252;2023-02-28T01:48:47;102949.80;;;11.88;38.48
73936;BME280;62287;50.858;0.252;2023-02-28T01:49:19;102949.84;;;11.85;38.50
73936;BME280;62287;50.858;0.252;2023-02-28T01:49:51;102949.81;;;11.86;38.54
73936;BME280;62287;50.858;0.252;2023-02-28T01:50:25;102948.89;;;11.98;38.56
73936;BME280;62287;50.858;0.252;2023-02-28T01:51:00;102949.63;;;12.15;38.59
73936;BME280;62287;50.858;0.252;2023-02-28T01:51:37;102948.26;;;12.03;38.44
73936;BME280;62287;50.858;0.252;2023-02-28T01:52:12;102947.76;;;11.88;38.47
73936;BME280;62287;50.858;0.252;2023-02-28T01:52:46;102949.30;;;11.86;38.57
73936;BME280;62287;50.858;0.252;2023-02-28T01:53:21;102950.37;;;11.79;38.64
73936;BME280;62287;50.858;0.252;2023-02-28T01:53:57;102949.89;;;11.81;38.66
73936;BME280;62287;50.858;0.252;2023-02-28T01:54:32;102949.63;;;12.22;38.58
73936;BME280;62287;50.858;0.252;2023-02-28T01:55:07;102950.73;;;11.94;38.55
73936;BME280;62287;50.858;0.252;2023-02-28T01:55:39;102951.60;;;11.86;38.61
73936;BME280;62287;50.858;0.252;2023-02-28T01:56:14;102951.80;;;11.93;38.53
73936;BME280;62287;50.858;0.252;2023-02-28T01:56:51;102952.79;;;11.70;38.68
73936;BME280;62287;50.858;0.252;2023-02-28T01:57:28;102951.50;;;11.69;38.71
73936;BME280;62287;50.858;0.252;2023-02-28T01:58:04;102950.40;;;11.62;38.69
73936;BME280;62287;50.858;0.252;2023-02-28T01:58:37;102951.54;;;12.04;38.72
73936;BME280;62287;50.858;0.252;2023-02-28T01:59:09;102948.29;;;11.62;38.71
73936;BME280;62287;50.858;0.252;2023-02-28T01:59:43;102947.06;;;11.46;38.87
73936;BME280;62287;50.858;0.252;2023-02-28T02:00:18;102949.89;;;11.46;38.81
73936;BME280;62287;50.858;0.252;2023-02-28T02:00:50;102948.11;;;11.45;38.78
73936;BME280;62287;50.858;0.252;2023-02-28T02:01:23;102947.65;;;11.88;38.63
73936;BME280;62287;50.858;0.252;2023-02-28T02:01:56;102946.59;;;11.43;38.79
73936;BME280;62287;50.858;0.252;2023-02-28T02:02:29;102945.98;;;11.43;38.80
73936;BME280;62287;50.858;0.252;2023-02-28T02:03:06;102947.43;;;11.49;38.76
73936;BME280;62287;50.858;0.252;2023-02-28T02:03:38;102947.51;;;11.45;38.81
73936;BME280;62287;50.858;0.252;2023-02-28T02:04:10;102948.11;;;11.37;38.84
73936;BME280;62287;50.858;0.252;2023-02-28T02:04:45;102951.50;;;11.55;38.75
73936;BME280;62287;50.858;0.252;2023-02-28T02:05:20;102951.17;;;11.59;38.65
73936;BME280;62287;50.858;0.252;2023-02-28T02:05:51;102950.40;;;11.52;38.71
73936;BME280;62287;50.858;0.252;2023-02-28T02:06:23;102951.86;;;11.55;38.71
73936;BME280;62287;50.858;0.252;2023-02-28T02:06:55;102951.98;;;11.55;38.79
73936;BME280;62287;50.858;0.252;2023-02-28T02:07:26;102952.24;;;11.55;38.76
73936;BME280;62287;50.858;0.252;2023-02-28T02:08:03;102952.13;;;11.52;38.79
73936;BME280;62287;50.858;0.252;2023-02-28T02:08:34;102955.74;;;11.76;38.60
73936;BME280;62287;50.858;0.252;2023-02-28T02:09:07;102954.09;;;11.60;38.72
73936;BME280;62287;50.858;0.252;2023-02-28T02:09:47;102953.75;;;12.00;38.66
73936;BME280;62287;50.858;0.252;2023-02-28T02:10:19;102950.59;;;11.50;38.74
73936;BME280;62287;50.858;0.252;2023-02-28T02:10:52;102953.12;;;11.88;38.81
73936;BME280;62287;50.858;0.252;2023-02-28T02:11:26;102952.60;;;11.83;38.51
73936;BME280;62287;50.858;0.252;2023-02-28T02:11:57;102954.12;;;12.42;38.54
73936;BME280;62287;50.858;0.252;2023-02-28T02:12:40;102954.52;;;11.63;38.71
73936;BME280;62287;50.858;0.252;2023-02-28T02:13:29;102953.40;;;11.44;38.89
73936;BME280;62287;50.858;0.252;2023-02-28T02:14:17;102953.73;;;11.34;38.71
73936;BME280;62287;50.858;0.252;2023-02-28T02:15:04;102954.89;;;11.64;38.78
73936;BME280;62287;50.858;0.252;2023-02-28T02:15:44;102952.81;;;11.58;38.80
73936;BME280;62287;50.858;0.252;2023-02-28T02:16:27;102953.79;;;11.73;38.64
73936;BME280;62287;50.858;0.252;2023-02-28T02:17:15;102951.38;;;11.64;38.77
73936;BME280;62287;50.858;0.252;2023-02-28T02:17:53;102952.34;;;11.70;38.76
73936;BME280;62287;50.858;0.252;2023-02-28T02:18:31;102954.28;;;12.32;38.49
73936;BME280;62287;50.858;0.252;2023-02-28T02:19:15;102957.85;;;11.87;38.48
73936;BME280;62287;50.858;0.252;2023-02-28T02:20:16;102956.67;;;12.15;38.50
73936;BME280;62287;50.858;0.252;2023-02-28T02:21:18;102956.36;;;11.84;38.52
73936;BME280;62287;50.858;0.252;2023-02-28T02:22:12;102957.80;;;11.73;38.55
73936;BME280;62287;50.858;0.252;2023-02-28T02:23:07;102958.44;;;11.76;38.48
73936;BME280;62287;50.858;0.252;2023-02-28T02:24:08;102959.33;;;11.57;38.57
73936;BME280;62287;50.858;0.252;2023-02-28T02:25:04;102958.96;;;11.68;38.50
73936;BME280;62287;50.858;0.252;2023-02-28T02:25:44;102959.73;;;11.55;38.55
73936;BME280;62287;50.858;0.252;2023-02-28T02:26:37;102957.12;;;11.95;38.58
73936;BME280;62287;50.858;0.252;2023-02-28T02:27:20;102960.48;;;11.71;38.75
73936;BME280;62287;50.858;0.252;2023-02-28T02:28:41;102961.44;;;11.68;38.68
73936;BME280;62287;50.858;0.252;2023-02-28T02:29:34;102965.09;;;11.59;38.84
73936;BME280;62287;50.858;0.252;2023-02-28T02:30:22;102966.55;;;11.82;38.70
73936;BME280;62287;50.858;0.252;2023-02-28T02:31:12;102967.67;;;11.87;38.84
73936;BME280;62287;50.858;0.252;2023-02-28T02:32:05;102965.52;;;11.68;38.99
73936;BME280;62287;50.858;0.252;2023-02-28T02:32:54;102963.97;;;11.30;38.97
73936;BME280;62287;50.858;0.252;2023-02-28T02:34:00;102965.81;;;11.55;38.71
73936;BME280;62287;50.858;0.252;2023-02-28T02:34:41;102966.31;;;11.66;38.58
73936;BME280;62287;50.858;0.252;2023-02-28T02:35:16;102967.21;;;11.64;38.64
73936;BME280;62287;50.858;0.252;2023-02-28T02:35:54;102968.21;;;12.20;38.45
73936;BME280;62287;50.858;0.252;2023-02-28T02:36:27;102968.44;;;12.06;38.61
73936;BME280;62287;50.858;0.252;2023-02-28T02:37:11;102966.58;;;11.37;38.83
73936;BME280;62287;50.858;0.252;2023-02-28T02:37:49;102969.43;;;11.66;38.69
73936;BME280;62287;50.858;0.252;2023-02-28T02:38:32;102967.80;;;11.48;38.73
73936;BME280;62287;50.858;0.252;2023-02-28T02:39:07;102967.65;;;11.52;38.69
73936;BME280;62287;50.858;0.252;2023-02-28T02:39:51;102964.65;;;11.39;38.82
73936;BME280;62287;50.858;0.252;2023-02-28T02:40:27;102965.27;;;12.09;38.67
73936;BME280;62287;50.858;0.252;2023-02-28T02:41:08;102963.49;;;12.09;38.70
73936;BME280;62287;50.858;0.252;2023-02-28T02:41:47;102964.41;;;11.78;38.57
73936;BME280;62287;50.858;0.252;2023-02-28T02:42:23;102963.65;;;12.27;38.73
73936;BME280;62287;50.858;0.252;2023-02-28T02:43:00;102961.68;;;12.30;38.84
73936;BME280;62287;50.858;0.252;2023-02-28T02:43:36;102958.21;;;11.32;38.93
73936;BME280;62287;50.858;0.252;2023-02-28T02:44:15;102958.64;;;11.73;38.94
73936;BME280;62287;50.858;0.252;2023-02-28T02:44:53;102956.35;;;11.87;38.85
73936;BME280;62287;50.858;0.252;2023-02-28T02:45:31;102956.05;;;11.94;39.11
73936;BME280;62287;50.858;0.252;2023-02-28T02:46:08;102957.44;;;11.59;39.06
73936;BME280;62287;50.858;0.252;2023-02-28T02:46:44;102956.56;;;11.91;39.08
73936;BME280;62287;50.858;0.252;2023-02-28T02:47:17;102957.74;;;11.48;39.11
73936;BME280;62287;50.858;0.252;2023-02-28T02:47:50;102956.60;;;11.45;39.21
73936;BME280;62287;50.858;0.252;2023-02-28T02:48:26;102955.46;;;11.97;39.11
73936;BME280;62287;50.858;0.252;2023-02-28T02:49:05;102955.83;;;12.11;39.03
73936;BME280;62287;50.858;0.252;2023-02-28T02:49:39;102955.34;;;11.42;38.86
73936;BME280;62287;50.858;0.252;2023-02-28T02:50:15;102952.49;;;12.16;38.87
73936;BME280;62287;50.858;0.252;2023-02-28T02:50:52;102954.11;;;11.73;38.84
73936;BME280;62287;50.858;0.252;2023-02-28T02:51:25;102954.15;;;12.12;38.80
73936;BME280;62287;50.858;0.252;2023-02-28T02:52:03;102955.64;;;11.93;38.91
73936;BME280;62287;50.858;0.252;2023-02-28T02:52:38;102956.15;;;12.02;38.94
73936;BME280;62287;50.858;0.252;2023-02-28T02:53:12;102956.09;;;12.08;38.96
73936;BME280;62287;50.858;0.252;2023-02-28T02:53:48;102955.94;;;11.74;38.85
73936;BME280;62287;50.858;0.252;2023-02-28T02:54:22;102958.58;;;11.86;39.04
73936;BME280;62287;50.858;0.252;2023-02-28T02:54:55;102959.10;;;11.83;39.21
73936;BME280;62287;50.858;0.252;2023-02-28T02:55:28;102958.25;;;11.43;39.18
73936;BME280;62287;50.858;0.252;2023-02-28T02:56:04;102956.00;;;11.99;39.10
73936;BME280;62287;50.858;0.252;2023-02-28T02:56:36;102955.74;;;11.73;38.95
73936;BME280;62287;50.858;0.252;2023-02-28T02:57:14;102953.17;;;11.97;38.94
73936;BME280;62287;50.858;0.252;2023-02-28T02:57:48;102956.28;;;11.50;39.10
73936;BME280;62287;50.858;0.252;2023-02-28T02:58:25;102951.02;;;11.03;39.12
73936;BME280;62287;50.858;0.252;2023-02-28T02:59:03;102952.49;;;11.88;39.17